createdAt,value
2023-02-02T00:01:54.399Z,5.22
2023-02-02T00:04:25.152Z,5.21
2023-02-02T00:06:53.935Z,5.21
2023-02-02T00:09:22.875Z,5.18
2023-02-02T00:11:51.996Z,5.16
2023-02-02T00:14:22.030Z,5.15
2023-02-02T00:16:51.899Z,5.12
2023-02-02T00:19:23.052Z,5.08
2023-02-02T00:21:51.640Z,5.05
2023-02-02T00:24:20.884Z,5.03
2023-02-02T00:26:53.114Z,4.98
2023-02-02T00:29:25.352Z,4.97
2023-02-02T00:31:54.285Z,4.94
2023-02-02T00:34:23.573Z,4.95
2023-02-02T00:36:52.886Z,4.96
2023-02-02T00:39:25.396Z,4.94
2023-02-02T00:41:53.904Z,4.94
2023-02-02T00:44:41.667Z,4.96
2023-02-02T00:47:10.082Z,4.96
2023-02-02T00:49:38.380Z,5.03
2023-02-02T00:52:07.029Z,5.05
2023-02-02T00:54:35.432Z,5.06
2023-02-02T00:57:03.964Z,5.07
2023-02-02T00:59:33.882Z,5.11
2023-02-02T01:02:02.261Z,5.13
2023-02-02T01:04:30.788Z,5.13
2023-02-02T01:06:59.153Z,5.14
2023-02-02T01:09:27.591Z,5.15
2023-02-02T01:11:56.073Z,5.18
2023-02-02T01:14:24.577Z,5.22
2023-02-02T01:16:54.230Z,5.25
2023-02-02T01:19:22.735Z,5.26
2023-02-02T01:21:52.064Z,5.27
2023-02-02T01:24:20.428Z,5.29
2023-02-02T01:26:48.851Z,5.32
2023-02-02T01:29:17.345Z,5.32
2023-02-02T01:31:45.998Z,5.34
2023-02-02T01:34:15.773Z,5.36
2023-02-02T01:36:44.155Z,5.38
2023-02-02T01:39:12.710Z,5.41
2023-02-02T01:41:42.322Z,5.42
2023-02-02T01:45:05.159Z,5.44
2023-02-02T01:47:39.133Z,5.45
2023-02-02T01:50:11.464Z,5.47
2023-02-02T01:52:41.500Z,5.49
2023-02-02T01:55:14.240Z,5.49
2023-02-02T01:57:48.350Z,5.51
2023-02-02T02:00:18.618Z,5.53
2023-02-02T02:02:49.613Z,5.54
2023-02-02T02:05:27.463Z,5.56
2023-02-02T02:08:05.317Z,5.54
2023-02-02T02:10:34.976Z,5.59
2023-02-02T02:13:03.424Z,5.60
2023-02-02T02:15:53.323Z,5.62
2023-02-02T02:18:33.547Z,5.61
2023-02-02T02:21:51.648Z,5.60
2023-02-02T02:25:18.298Z,5.61
2023-02-02T02:28:49.305Z,5.60
2023-02-02T02:31:56.032Z,5.61
2023-02-02T02:34:35.383Z,5.60
2023-02-02T02:37:12.025Z,5.64
2023-02-02T02:39:47.102Z,5.66
2023-02-02T02:42:20.166Z,5.73
2023-02-02T02:44:50.512Z,5.76
2023-02-02T02:47:21.239Z,5.83
2023-02-02T02:49:50.927Z,5.88
2023-02-02T02:52:19.265Z,5.91
2023-02-02T02:54:51.701Z,5.96
2023-02-02T02:57:40.047Z,5.99
2023-02-02T03:00:27.992Z,6.04
2023-02-02T03:03:09.497Z,6.08
2023-02-02T03:05:50.856Z,6.12
2023-02-02T03:08:26.057Z,6.16
2023-02-02T03:10:57.042Z,6.21
2023-02-02T03:13:26.121Z,6.23
2023-02-02T03:15:54.727Z,6.28
2023-02-02T03:18:29.135Z,6.32
2023-02-02T03:20:57.760Z,6.36
2023-02-02T03:23:26.519Z,6.38
2023-02-02T03:25:55.597Z,6.42
2023-02-02T03:28:25.534Z,6.46
2023-02-02T03:30:55.131Z,6.50
2023-02-02T03:33:25.414Z,6.55
2023-02-02T03:35:54.178Z,6.59
2023-02-02T03:38:22.552Z,6.63
2023-02-02T03:40:52.661Z,6.65
2023-02-02T03:43:25.019Z,6.69
2023-02-02T03:45:58.561Z,6.70
2023-02-02T03:48:28.800Z,6.74
2023-02-02T03:50:57.296Z,6.78
2023-02-02T03:53:26.016Z,6.83
2023-02-02T03:55:55.080Z,6.87
2023-02-02T03:58:23.627Z,6.92
2023-02-02T04:00:52.256Z,6.95
2023-02-02T04:03:20.612Z,7.00
2023-02-02T04:05:52.505Z,7.03
2023-02-02T04:08:20.766Z,7.07
2023-02-02T04:10:49.032Z,7.08
2023-02-02T04:13:17.367Z,7.09
2023-02-02T04:15:45.768Z,7.09
2023-02-02T04:18:14.307Z,7.08
2023-02-02T04:20:42.687Z,7.06
2023-02-02T04:23:12.763Z,7.05
2023-02-02T04:25:41.166Z,7.04
2023-02-02T04:28:09.947Z,7.04
2023-02-02T04:30:38.743Z,7.02
2023-02-02T04:33:07.349Z,7.01
2023-02-02T04:35:45.554Z,6.92
2023-02-02T04:38:15.812Z,6.78
2023-02-02T04:40:46.693Z,6.65
2023-02-02T04:43:16.106Z,6.50
2023-02-02T04:45:45.070Z,6.38
2023-02-02T04:48:13.501Z,6.32
2023-02-02T04:50:41.830Z,6.23
2023-02-02T04:53:10.139Z,6.16
2023-02-02T04:55:40.227Z,6.13
2023-02-02T04:58:08.632Z,6.10
2023-02-02T05:00:37.111Z,6.10
2023-02-02T05:03:05.616Z,6.09
2023-02-02T05:05:33.991Z,6.08
2023-02-02T05:08:02.292Z,6.07
2023-02-02T05:10:31.224Z,6.07
2023-02-02T05:13:00.970Z,6.05
2023-02-02T05:15:29.382Z,6.05
2023-02-02T05:17:57.760Z,6.05
2023-02-02T05:20:26.274Z,6.04
2023-02-02T05:22:54.687Z,6.04
2023-02-02T05:25:23.644Z,6.02
2023-02-02T05:27:52.252Z,6.03
2023-02-02T05:30:22.379Z,6.01
2023-02-02T05:32:50.768Z,6.00
2023-02-02T05:35:19.247Z,6.00
2023-02-02T05:37:47.806Z,5.99
2023-02-02T05:40:16.575Z,5.98
2023-02-02T05:42:49.536Z,5.97
2023-02-02T05:45:18.300Z,5.97
2023-02-02T05:47:48.030Z,5.97
2023-02-02T05:50:17.177Z,5.96
2023-02-02T05:52:48.374Z,5.96
2023-02-02T05:55:18.478Z,5.94
2023-02-02T05:57:46.894Z,5.95
2023-02-02T06:00:16.655Z,5.96
2023-02-02T06:02:45.572Z,5.94
2023-02-02T06:05:15.408Z,5.95
2023-02-02T06:07:43.796Z,5.95
2023-02-02T06:10:12.523Z,5.96
2023-02-02T06:12:40.871Z,5.95
2023-02-02T06:15:11.720Z,5.96
2023-02-02T06:17:40.056Z,5.97
2023-02-02T06:20:09.521Z,5.98
2023-02-02T06:22:39.154Z,5.98
2023-02-02T06:25:08.894Z,5.99
2023-02-02T06:27:37.429Z,6.02
2023-02-02T06:30:06.724Z,6.02
2023-02-02T06:32:35.147Z,6.02
2023-02-02T06:35:03.854Z,6.00
2023-02-02T06:37:34.209Z,6.02
2023-02-02T06:40:03.994Z,6.03
2023-02-02T06:42:32.348Z,6.01
2023-02-02T06:45:00.664Z,6.03
2023-02-02T06:47:29.072Z,6.04
2023-02-02T06:49:57.613Z,6.07
2023-02-02T06:52:25.943Z,6.09
2023-02-02T06:54:54.291Z,6.12
2023-02-02T06:57:24.107Z,6.14
2023-02-02T06:59:52.389Z,6.17
2023-02-02T07:02:20.849Z,6.20
2023-02-02T07:04:49.348Z,6.23
2023-02-02T07:07:21.454Z,6.25
2023-02-02T07:09:58.105Z,6.29
2023-02-02T07:12:28.368Z,6.31
2023-02-02T07:14:57.013Z,6.34
2023-02-02T07:17:25.411Z,6.36
2023-02-02T07:19:53.662Z,6.39
2023-02-02T07:22:22.060Z,6.41
2023-02-02T07:24:50.391Z,6.43
2023-02-02T07:27:18.761Z,6.45
2023-02-02T07:29:48.463Z,6.47
2023-02-02T07:32:16.974Z,6.48
2023-02-02T07:34:45.218Z,6.51
2023-02-02T07:37:13.464Z,6.55
2023-02-02T07:39:43.351Z,6.58
2023-02-02T07:42:13.467Z,6.62
2023-02-02T07:44:41.815Z,6.63
2023-02-02T07:47:11.523Z,6.65
2023-02-02T07:49:39.933Z,6.67
2023-02-02T07:52:08.426Z,6.67
2023-02-02T07:54:36.870Z,6.68
2023-02-02T07:57:05.330Z,6.69
2023-02-02T07:59:33.754Z,6.71
2023-02-02T08:02:02.199Z,6.72
2023-02-02T08:04:33.561Z,6.76
2023-02-02T08:07:02.052Z,6.77
2023-02-02T08:09:31.160Z,6.82
2023-02-02T08:12:01.852Z,6.86
2023-02-02T08:14:30.486Z,6.88
2023-02-02T08:16:58.797Z,6.92
2023-02-02T08:19:27.160Z,6.96
2023-02-02T08:21:57.036Z,6.99
2023-02-02T08:24:25.439Z,7.03
2023-02-02T08:26:54.002Z,7.06
2023-02-02T08:29:22.395Z,7.09
2023-02-02T08:31:50.968Z,7.09
2023-02-02T08:34:19.397Z,7.12
2023-02-02T08:36:47.659Z,7.16
2023-02-02T08:39:17.400Z,7.16
2023-02-02T08:41:46.379Z,7.16
2023-02-02T08:44:17.081Z,7.17
2023-02-02T08:46:45.397Z,7.17
2023-02-02T08:49:14.335Z,7.18
2023-02-02T08:51:43.171Z,7.17
2023-02-02T08:54:11.564Z,7.16
2023-02-02T08:56:42.050Z,7.18
2023-02-02T08:59:10.487Z,7.17
2023-02-02T09:01:39.024Z,7.17
2023-02-02T09:04:09.413Z,7.16
2023-02-02T09:06:40.446Z,7.14
2023-02-02T09:09:11.659Z,7.15
2023-02-02T09:11:42.087Z,7.15
2023-02-02T09:14:12.310Z,7.15
2023-02-02T09:16:40.921Z,7.17
2023-02-02T09:19:09.543Z,7.23
2023-02-02T09:21:38.019Z,7.31
2023-02-02T09:24:11.684Z,7.44
2023-02-02T09:26:41.777Z,7.51
2023-02-02T09:29:14.394Z,7.59
2023-02-02T09:31:43.250Z,7.66
2023-02-02T09:34:13.913Z,7.73
2023-02-02T09:36:44.224Z,7.82
2023-02-02T09:39:15.104Z,7.88
2023-02-02T09:42:19.931Z,7.93
2023-02-02T09:45:14.837Z,7.97
2023-02-02T09:47:57.816Z,8.02
2023-02-02T09:50:45.303Z,8.05
2023-02-02T09:53:24.543Z,8.08
2023-02-02T09:55:55.972Z,8.15
2023-02-02T09:58:30.084Z,8.20
2023-02-02T10:01:06.875Z,8.25
2023-02-02T10:03:42.015Z,8.30
2023-02-02T10:06:26.651Z,8.32
2023-02-02T10:09:01.003Z,8.31
2023-02-02T10:11:35.614Z,8.32
2023-02-02T10:14:14.351Z,8.35
2023-02-02T10:16:43.319Z,8.36
2023-02-02T10:19:13.681Z,8.39
2023-02-02T10:21:49.682Z,8.43
2023-02-02T10:24:21.995Z,8.50
2023-02-02T10:26:53.561Z,8.59
2023-02-02T10:29:48.012Z,8.64
2023-02-02T10:32:24.112Z,8.68
2023-02-02T10:35:28.632Z,8.71
2023-02-02T10:38:03.151Z,8.76
2023-02-02T10:40:48.378Z,8.76
2023-02-02T10:43:54.570Z,8.77
2023-02-02T10:46:27.512Z,8.82
2023-02-02T10:49:12.999Z,8.86
2023-02-02T10:51:42.213Z,8.80
2023-02-02T10:54:31.064Z,8.66
2023-02-02T10:57:02.327Z,8.54
2023-02-02T10:59:34.818Z,8.49
2023-02-02T11:02:19.965Z,8.45
2023-02-02T11:05:06.365Z,8.41
2023-02-02T11:07:34.774Z,8.37
2023-02-02T11:10:03.125Z,8.34
2023-02-02T11:12:36.763Z,8.31
2023-02-02T11:15:09.028Z,8.31
2023-02-02T11:17:39.680Z,8.30
2023-02-02T11:20:26.881Z,8.25
2023-02-02T11:23:03.169Z,8.25
2023-02-02T11:25:35.515Z,8.27
2023-02-02T11:28:19.000Z,8.27
2023-02-02T11:30:52.607Z,8.32
2023-02-02T11:33:30.319Z,8.34
2023-02-02T11:36:01.055Z,8.38
2023-02-02T11:38:30.315Z,8.36
2023-02-02T11:41:03.741Z,8.39
2023-02-02T11:43:41.019Z,8.38
2023-02-02T11:46:21.467Z,8.38
2023-02-02T11:48:58.805Z,8.39
2023-02-02T11:51:29.534Z,8.40
2023-02-02T11:54:06.788Z,8.40
2023-02-02T11:56:38.233Z,8.40
2023-02-02T11:59:06.794Z,8.39
2023-02-02T12:01:39.649Z,8.38
2023-02-02T12:04:26.532Z,8.35
2023-02-02T12:06:55.113Z,8.40
2023-02-02T12:09:25.881Z,8.45
2023-02-02T12:12:03.340Z,8.51
2023-02-02T12:14:44.122Z,8.51
2023-02-02T12:17:27.697Z,8.49
2023-02-02T12:20:33.474Z,8.46
2023-02-02T12:23:36.953Z,8.39
2023-02-02T12:26:30.553Z,8.38
2023-02-02T12:29:28.276Z,8.39
2023-02-02T12:32:17.960Z,8.30
2023-02-02T12:35:00.684Z,8.25
2023-02-02T12:37:51.549Z,8.24
2023-02-02T12:40:43.695Z,8.29
2023-02-02T12:43:27.189Z,8.29
2023-02-02T12:46:23.190Z,8.33
2023-02-02T12:49:08.361Z,8.33
2023-02-02T12:51:54.252Z,8.38
2023-02-02T12:54:53.127Z,8.44
2023-02-02T12:57:35.446Z,8.50
2023-02-02T13:00:28.162Z,8.54
2023-02-02T13:03:11.705Z,8.62
2023-02-02T13:05:55.663Z,8.70
2023-02-02T13:08:30.593Z,8.73
2023-02-02T13:11:28.236Z,8.77
2023-02-02T13:13:59.618Z,8.76
2023-02-02T13:16:31.556Z,8.74
2023-02-02T13:19:08.051Z,8.68
2023-02-02T13:21:38.509Z,8.65
2023-02-02T13:24:10.958Z,8.67
2023-02-02T13:26:45.745Z,8.65
2023-02-02T13:29:34.064Z,8.63
2023-02-02T13:32:22.595Z,8.62
2023-02-02T13:34:56.862Z,8.61
2023-02-02T13:37:37.108Z,8.63
2023-02-02T13:40:16.991Z,8.71
2023-02-02T13:42:53.465Z,8.76
2023-02-02T13:45:41.439Z,8.77
2023-02-02T13:48:25.603Z,8.73
2023-02-02T13:51:43.374Z,8.68
2023-02-02T13:54:55.199Z,8.69
2023-02-02T13:58:05.354Z,8.70
2023-02-02T14:00:41.019Z,8.74
2023-02-02T14:03:38.702Z,8.74
2023-02-02T14:06:12.303Z,8.70
2023-02-02T14:08:48.949Z,8.68
2023-02-02T14:11:28.110Z,8.63
2023-02-02T14:14:18.655Z,8.64
2023-02-02T14:16:52.416Z,8.61
2023-02-02T14:19:55.260Z,8.59
2023-02-02T14:22:50.988Z,8.59
2023-02-02T14:25:55.654Z,8.59
2023-02-02T14:28:57.188Z,8.56
2023-02-02T14:31:43.532Z,8.60
2023-02-02T14:34:35.715Z,8.63
2023-02-02T14:37:39.600Z,8.65
2023-02-02T14:40:44.880Z,8.64
2023-02-02T14:43:41.295Z,8.63
2023-02-02T14:46:48.200Z,8.53
2023-02-02T14:49:29.100Z,8.51
2023-02-02T14:52:05.670Z,8.53
2023-02-02T14:54:39.270Z,8.58
2023-02-02T14:57:26.387Z,8.60
2023-02-02T14:59:56.503Z,8.60
2023-02-02T15:02:33.095Z,8.60
2023-02-02T15:05:40.427Z,8.56
2023-02-02T15:08:26.195Z,8.56
2023-02-02T15:11:32.088Z,8.56
2023-02-02T15:14:14.175Z,8.53
2023-02-02T15:16:44.023Z,8.52
2023-02-02T15:19:25.864Z,8.54
2023-02-02T15:21:58.570Z,8.52
2023-02-02T15:24:31.045Z,8.52
2023-02-02T15:27:03.127Z,8.48
2023-02-02T15:29:42.750Z,8.47
2023-02-02T15:32:17.173Z,8.46
2023-02-02T15:34:50.385Z,8.46
2023-02-02T15:37:24.875Z,8.46
2023-02-02T15:39:59.905Z,8.45
2023-02-02T15:42:56.508Z,8.47
2023-02-02T15:45:43.554Z,8.44
2023-02-02T15:48:23.905Z,8.45
2023-02-02T15:50:57.669Z,8.46
2023-02-02T15:53:29.327Z,8.46
2023-02-02T15:55:59.365Z,8.49
2023-02-02T15:58:33.604Z,8.51
2023-02-02T16:01:06.741Z,8.50
2023-02-02T16:03:46.789Z,8.50
2023-02-02T16:06:15.346Z,8.52
2023-02-02T16:08:44.476Z,8.51
2023-02-02T16:11:17.318Z,8.50
2023-02-02T16:13:58.813Z,8.52
2023-02-02T16:16:30.059Z,8.51
2023-02-02T16:19:14.694Z,8.51
2023-02-02T16:21:49.702Z,8.50
2023-02-02T16:24:24.508Z,8.50
2023-02-02T16:26:56.995Z,8.51
2023-02-02T16:29:28.066Z,8.52
2023-02-02T16:31:58.377Z,8.53
2023-02-02T16:34:48.170Z,8.53
2023-02-02T16:37:27.712Z,8.56
2023-02-02T16:39:59.035Z,8.59
2023-02-02T16:42:31.632Z,8.60
2023-02-02T16:45:01.725Z,8.62
2023-02-02T16:47:40.564Z,8.61
2023-02-02T16:50:32.206Z,8.62
2023-02-02T16:53:04.560Z,8.65
2023-02-02T16:55:49.984Z,8.67
2023-02-02T16:58:24.017Z,8.68
2023-02-02T17:01:14.083Z,8.68
2023-02-02T17:03:51.435Z,8.69
2023-02-02T17:06:35.700Z,8.69
2023-02-02T17:09:35.198Z,8.67
2023-02-02T17:12:14.335Z,8.69
2023-02-02T17:14:56.677Z,8.70
2023-02-02T17:17:25.451Z,8.71
2023-02-02T17:19:54.015Z,8.72
2023-02-02T17:22:25.328Z,8.71
2023-02-02T17:24:54.107Z,8.74
2023-02-02T17:27:29.150Z,8.74
2023-02-02T17:30:01.379Z,8.75
2023-02-02T17:32:29.770Z,8.73
2023-02-02T17:34:58.185Z,8.76
2023-02-02T17:37:26.539Z,8.75
2023-02-02T17:39:54.854Z,8.77
2023-02-02T17:42:26.779Z,8.79
2023-02-02T17:44:55.337Z,8.81
2023-02-02T17:47:25.111Z,8.82
2023-02-02T17:49:53.652Z,8.83
2023-02-02T17:52:22.360Z,8.83
2023-02-02T17:54:50.702Z,8.82
2023-02-02T17:57:20.157Z,8.82
2023-02-02T17:59:48.549Z,8.83
2023-02-02T18:02:17.759Z,8.83
2023-02-02T18:04:59.273Z,8.84
2023-02-02T18:07:27.603Z,8.83
2023-02-02T18:09:55.977Z,8.84
2023-02-02T18:12:25.342Z,8.85
2023-02-02T18:14:55.790Z,8.86
2023-02-02T18:17:26.280Z,8.86
2023-02-02T18:19:56.734Z,8.86
2023-02-02T18:22:36.025Z,8.87
2023-02-02T18:25:13.809Z,8.87
2023-02-02T18:27:51.590Z,8.87
2023-02-02T18:30:29.294Z,8.85
2023-02-02T18:32:57.642Z,8.85
2023-02-02T18:35:28.422Z,8.87
2023-02-02T18:37:57.841Z,8.88
2023-02-02T18:40:26.265Z,8.89
2023-02-02T18:42:54.862Z,8.89
2023-02-02T18:45:23.715Z,8.89
2023-02-02T18:47:52.415Z,8.90
2023-02-02T18:50:22.138Z,8.90
2023-02-02T18:52:51.807Z,8.89
2023-02-02T18:55:20.165Z,8.90
2023-02-02T18:57:48.649Z,8.89
2023-02-02T19:00:17.522Z,8.90
2023-02-02T19:02:45.910Z,8.91
2023-02-02T19:05:31.706Z,8.91
2023-02-02T19:08:03.420Z,8.91
2023-02-02T19:10:31.923Z,8.91
2023-02-02T19:13:13.370Z,8.91
2023-02-02T19:15:42.424Z,8.90
2023-02-02T19:18:17.014Z,8.91
2023-02-02T19:20:46.126Z,8.90
2023-02-02T19:23:19.131Z,8.89
2023-02-02T19:25:51.660Z,8.91
2023-02-02T19:28:29.307Z,8.91
2023-02-02T19:31:00.105Z,8.92
2023-02-02T19:33:38.603Z,8.92
2023-02-02T19:36:12.465Z,8.92
2023-02-02T19:38:42.437Z,8.92
2023-02-02T19:41:20.273Z,8.93
2023-02-02T19:43:49.057Z,8.94
2023-02-02T19:46:22.517Z,8.95
2023-02-02T19:48:55.695Z,8.96
2023-02-02T19:51:42.967Z,8.95
2023-02-02T19:54:29.738Z,8.95
2023-02-02T19:57:01.826Z,8.96
2023-02-02T19:59:36.244Z,8.96
2023-02-02T20:02:53.595Z,8.93
2023-02-02T20:05:24.338Z,8.97
2023-02-02T20:08:02.389Z,8.96
2023-02-02T20:10:42.562Z,8.97
2023-02-02T20:13:22.400Z,8.97
2023-02-02T20:15:54.684Z,8.97
2023-02-02T20:18:35.483Z,8.98
2023-02-02T20:21:08.952Z,8.97
2023-02-02T20:23:42.568Z,8.98
2023-02-02T20:26:24.313Z,9.00
2023-02-02T20:28:54.573Z,8.98
2023-02-02T20:31:26.592Z,9.00
2023-02-02T20:33:57.591Z,9.02
2023-02-02T20:36:36.773Z,9.01
2023-02-02T20:39:28.916Z,9.00
2023-02-02T20:41:58.863Z,9.00
2023-02-02T20:44:29.475Z,9.00
2023-02-02T20:47:00.386Z,9.01
2023-02-02T20:49:31.729Z,9.01
2023-02-02T20:52:03.653Z,9.00
2023-02-02T20:54:32.834Z,9.02
2023-02-02T20:57:03.214Z,9.03
2023-02-02T20:59:31.601Z,9.01
2023-02-02T21:02:00.811Z,9.02
2023-02-02T21:04:29.687Z,9.00
2023-02-02T21:07:00.449Z,9.03
2023-02-02T21:09:28.987Z,9.04
2023-02-02T21:11:57.334Z,9.04
2023-02-02T21:14:27.130Z,9.04
2023-02-02T21:17:12.695Z,9.05
2023-02-02T21:19:42.622Z,9.04
2023-02-02T21:22:11.283Z,9.05
2023-02-02T21:24:39.683Z,9.05
2023-02-02T21:27:08.994Z,9.06
2023-02-02T21:29:38.970Z,9.07
2023-02-02T21:32:07.607Z,9.08
2023-02-02T21:34:37.692Z,9.09
2023-02-02T21:37:13.679Z,9.09
2023-02-02T21:39:48.130Z,9.10
2023-02-02T21:42:18.892Z,9.10
2023-02-02T21:44:54.206Z,9.12
2023-02-02T21:47:34.159Z,9.12
2023-02-02T21:50:15.862Z,9.12
2023-02-02T21:52:44.388Z,9.14
2023-02-02T21:55:32.786Z,9.13
2023-02-02T21:58:02.601Z,9.14
2023-02-02T22:00:34.953Z,9.14
2023-02-02T22:03:03.613Z,9.16
2023-02-02T22:05:37.838Z,9.18
2023-02-02T22:08:22.703Z,9.18
2023-02-02T22:10:51.109Z,9.21
2023-02-02T22:13:21.953Z,9.25
2023-02-02T22:15:54.011Z,9.30
2023-02-02T22:18:24.853Z,9.33
2023-02-02T22:20:56.563Z,9.37
2023-02-02T22:23:28.932Z,9.45
2023-02-02T22:25:59.829Z,9.51
2023-02-02T22:28:31.527Z,9.57
2023-02-02T22:31:01.717Z,9.63
2023-02-02T22:33:30.035Z,9.68
2023-02-02T22:35:58.359Z,9.72
2023-02-02T22:38:27.168Z,9.76
2023-02-02T22:40:55.770Z,9.80
2023-02-02T22:43:24.090Z,9.84
2023-02-02T22:45:52.490Z,9.87
2023-02-02T22:48:22.248Z,9.89
2023-02-02T22:50:50.566Z,9.90
2023-02-02T22:53:18.914Z,9.92
2023-02-02T22:55:47.247Z,9.93
2023-02-02T22:58:15.551Z,9.95
2023-02-02T23:00:43.855Z,9.96
2023-02-02T23:03:12.324Z,9.97
2023-02-02T23:05:42.156Z,9.99
2023-02-02T23:08:10.528Z,9.99
2023-02-02T23:10:39.008Z,9.99
2023-02-02T23:13:08.251Z,10.01
2023-02-02T23:15:36.892Z,10.02
2023-02-02T23:18:06.042Z,10.05
2023-02-02T23:20:34.675Z,10.06
2023-02-02T23:23:05.312Z,10.05
2023-02-02T23:25:33.827Z,10.04
2023-02-02T23:28:02.151Z,10.02
2023-02-02T23:30:30.545Z,10.05
2023-02-02T23:32:59.011Z,10.05
2023-02-02T23:35:27.339Z,10.04
2023-02-02T23:37:55.664Z,10.04
2023-02-02T23:40:25.704Z,10.02
2023-02-02T23:42:54.273Z,10.00
2023-02-02T23:45:22.689Z,9.99
2023-02-02T23:47:50.991Z,9.98
2023-02-02T23:50:19.512Z,9.98
2023-02-02T23:52:47.951Z,9.99
2023-02-02T23:55:16.791Z,9.99
2023-02-02T23:57:46.565Z,9.99
